createdAt,value
2023-05-21T00:00:24.486Z,74.75
2023-05-21T00:05:47.479Z,76.15
2023-05-21T00:10:50.474Z,76.97
2023-05-21T00:15:53.447Z,78.40
2023-05-21T00:20:56.296Z,80.49
2023-05-21T00:26:00.205Z,80.50
2023-05-21T00:31:03.174Z,80.20
2023-05-21T00:36:06.482Z,78.89
2023-05-21T00:41:11.049Z,79.39
2023-05-21T00:46:21.059Z,79.04
2023-05-21T00:51:24.926Z,80.71
2023-05-21T00:56:28.043Z,81.67
2023-05-21T01:01:34.145Z,82.31
2023-05-21T01:06:37.948Z,82.82
2023-05-21T01:11:50.117Z,83.10
2023-05-21T01:16:53.797Z,83.69
2023-05-21T01:22:06.024Z,83.92
2023-05-21T01:27:10.737Z,84.19
2023-05-21T01:32:25.826Z,84.48
2023-05-21T01:38:13.997Z,84.64
2023-05-21T01:43:19.669Z,84.50
2023-05-21T01:48:27.368Z,84.20
2023-05-21T01:53:30.688Z,83.61
2023-05-21T01:58:33.655Z,82.46
2023-05-21T02:03:36.848Z,82.43
2023-05-21T02:08:40.468Z,82.86
2023-05-21T02:13:43.505Z,83.53
2023-05-21T02:18:47.117Z,83.78
2023-05-21T02:23:50.066Z,83.74
2023-05-21T02:28:54.348Z,83.61
2023-05-21T02:33:58.264Z,83.60
2023-05-21T02:39:01.955Z,82.74
2023-05-21T02:44:05.002Z,82.24
2023-05-21T02:49:07.941Z,82.17
2023-05-21T02:54:10.954Z,82.19
2023-05-21T02:59:13.994Z,82.38
2023-05-21T03:04:21.951Z,82.33
2023-05-21T03:09:24.801Z,82.21
2023-05-21T03:14:29.034Z,81.49
2023-05-21T03:19:36.560Z,80.71
2023-05-21T03:24:39.987Z,80.06
2023-05-21T03:29:43.393Z,79.33
2023-05-21T03:34:46.280Z,77.83
2023-05-21T03:39:49.136Z,77.03
2023-05-21T03:44:51.962Z,76.11
2023-05-21T03:49:55.108Z,75.11
2023-05-21T03:54:58.060Z,75.38
2023-05-21T04:00:00.976Z,75.14
2023-05-21T04:05:04.260Z,74.40
2023-05-21T04:10:08.113Z,73.57
2023-05-21T04:15:11.313Z,72.71
2023-05-21T04:20:17.138Z,70.67
2023-05-21T04:25:21.994Z,68.50
2023-05-21T04:30:24.977Z,65.86
2023-05-21T04:35:27.879Z,64.68
2023-05-21T04:40:30.874Z,63.38
2023-05-21T04:45:33.962Z,62.52
2023-05-21T04:50:37.027Z,61.36
2023-05-21T04:55:40.301Z,61.31
2023-05-21T05:00:46.205Z,59.51
2023-05-21T05:05:49.141Z,58.98
2023-05-21T05:10:52.136Z,57.66
2023-05-21T05:15:55.119Z,57.15
2023-05-21T05:20:58.030Z,56.36
2023-05-21T05:26:01.001Z,54.97
2023-05-21T05:31:04.063Z,54.78
2023-05-21T05:36:07.488Z,53.47
2023-05-21T05:41:10.413Z,53.16
2023-05-21T05:46:13.362Z,52.88
2023-05-21T05:51:17.245Z,53.23
2023-05-21T05:56:20.152Z,53.28
2023-05-21T06:01:24.893Z,51.57
2023-05-21T06:06:28.281Z,50.28
2023-05-21T06:11:31.231Z,50.21
2023-05-21T06:16:34.389Z,49.52
2023-05-21T06:21:37.446Z,48.46
2023-05-21T06:26:40.414Z,46.97
2023-05-21T06:31:44.214Z,45.67
2023-05-21T06:36:48.782Z,45.37
2023-05-21T06:41:51.819Z,44.88
2023-05-21T06:46:54.957Z,44.13
2023-05-21T06:51:58.005Z,43.58
2023-05-21T06:57:01.843Z,42.51
2023-05-21T07:02:05.144Z,41.79
2023-05-21T07:07:08.076Z,41.37
2023-05-21T07:12:11.002Z,41.62
2023-05-21T07:17:14.044Z,41.35
2023-05-21T07:22:17.025Z,39.01
2023-05-21T07:32:29.393Z,37.93
2023-05-21T07:37:33.078Z,37.45
2023-05-21T07:42:36.174Z,37.24
2023-05-21T07:47:40.419Z,36.85
2023-05-21T07:52:43.633Z,37.71
2023-05-21T07:57:46.611Z,37.53
2023-05-21T08:02:49.703Z,35.83
2023-05-21T08:07:52.823Z,36.33
2023-05-21T08:12:56.022Z,34.12
2023-05-21T08:17:59.639Z,33.50
2023-05-21T08:23:03.032Z,32.06
2023-05-21T08:28:07.453Z,32.41
2023-05-21T08:33:11.720Z,31.59
2023-05-21T08:38:17.353Z,31.10
2023-05-21T08:43:21.139Z,32.40
2023-05-21T08:48:25.121Z,31.68
2023-05-21T08:53:29.192Z,30.95
2023-05-21T08:58:33.882Z,30.18
2023-05-21T09:03:41.187Z,28.89
2023-05-21T09:08:47.162Z,29.31
2023-05-21T09:13:52.550Z,29.17
2023-05-21T09:18:55.521Z,28.80
2023-05-21T09:24:00.117Z,28.99
2023-05-21T09:29:03.985Z,29.56
2023-05-21T09:34:07.118Z,28.84
2023-05-21T09:39:12.267Z,28.52
2023-05-21T09:44:15.457Z,29.18
2023-05-21T09:49:26.766Z,29.35
2023-05-21T09:54:35.721Z,30.03
2023-05-21T09:59:39.968Z,29.15
2023-05-21T10:04:44.927Z,28.07
2023-05-21T10:09:49.334Z,28.08
2023-05-21T10:15:01.471Z,28.17
2023-05-21T10:20:07.733Z,27.77
2023-05-21T10:25:13.760Z,27.40
2023-05-21T10:30:18.694Z,27.54
2023-05-21T10:35:23.275Z,26.78
2023-05-21T10:40:26.553Z,26.38
2023-05-21T10:45:58.067Z,26.01
2023-05-21T10:51:56.730Z,26.33
2023-05-21T10:57:43.544Z,26.84
2023-05-21T11:02:50.194Z,26.86
2023-05-21T11:07:57.791Z,27.33
2023-05-21T11:13:16.454Z,26.90
2023-05-21T11:18:20.920Z,26.17
2023-05-21T11:23:51.499Z,27.09
2023-05-21T11:29:08.676Z,27.22
2023-05-21T11:34:28.844Z,26.64
2023-05-21T11:39:40.481Z,26.47
2023-05-21T11:44:47.669Z,26.62
2023-05-21T11:49:50.590Z,26.32
2023-05-21T11:54:56.891Z,26.07
2023-05-21T12:00:02.293Z,25.89
2023-05-21T12:05:06.822Z,25.90
2023-05-21T12:10:10.804Z,25.70
2023-05-21T12:15:14.060Z,25.48
2023-05-21T12:20:17.256Z,25.22
2023-05-21T12:25:21.370Z,24.45
2023-05-21T12:30:26.283Z,23.33
2023-05-21T12:35:31.660Z,23.73
2023-05-21T12:40:40.807Z,24.56
2023-05-21T12:45:44.634Z,24.58
2023-05-21T12:50:47.636Z,24.59
2023-05-21T12:55:50.936Z,24.68
2023-05-21T13:00:56.657Z,24.19
2023-05-21T13:06:01.758Z,23.95
2023-05-21T13:11:05.271Z,24.59
2023-05-21T13:16:08.580Z,24.23
2023-05-21T13:21:11.619Z,24.51
2023-05-21T13:26:14.578Z,24.84
2023-05-21T13:31:17.776Z,24.99
2023-05-21T13:36:20.903Z,24.95
2023-05-21T13:41:23.938Z,24.61
2023-05-21T13:46:27.147Z,25.00
2023-05-21T13:51:38.519Z,24.53
2023-05-21T13:56:42.351Z,24.56
2023-05-21T14:01:46.021Z,24.82
2023-05-21T14:06:49.058Z,24.26
2023-05-21T14:11:52.018Z,23.70
2023-05-21T14:16:55.025Z,24.11
2023-05-21T14:21:59.977Z,24.33
2023-05-21T14:27:02.917Z,24.23
2023-05-21T14:32:06.650Z,24.09
2023-05-21T14:37:09.594Z,22.89
2023-05-21T14:42:12.540Z,23.00
2023-05-21T14:47:15.702Z,23.58
2023-05-21T14:52:18.640Z,23.78
2023-05-21T14:57:21.560Z,24.06
2023-05-21T15:02:24.649Z,24.36
2023-05-21T15:07:27.797Z,24.21
2023-05-21T15:12:30.853Z,24.18
2023-05-21T15:17:35.316Z,23.67
2023-05-21T15:22:38.442Z,23.63
2023-05-21T15:27:41.412Z,23.73
2023-05-21T15:32:44.310Z,23.61
2023-05-21T15:37:47.193Z,23.58
2023-05-21T15:42:50.279Z,23.47
2023-05-21T15:47:53.335Z,23.28
2023-05-21T15:52:56.368Z,23.18
2023-05-21T15:58:02.048Z,23.29
2023-05-21T16:03:05.578Z,22.77
2023-05-21T16:08:10.826Z,22.83
2023-05-21T16:13:13.754Z,22.09
2023-05-21T16:18:16.631Z,22.56
2023-05-21T16:23:19.712Z,22.79
2023-05-21T16:28:24.510Z,23.14
2023-05-21T16:33:27.553Z,23.52
2023-05-21T16:38:31.458Z,23.81
2023-05-21T16:43:34.700Z,25.24
2023-05-21T16:48:39.404Z,27.41
2023-05-21T16:53:42.322Z,28.56
2023-05-21T16:58:45.186Z,29.00
2023-05-21T17:03:48.174Z,28.76
2023-05-21T17:08:51.439Z,29.01
2023-05-21T17:13:54.287Z,29.08
2023-05-21T17:18:57.246Z,29.68
2023-05-21T17:24:00.686Z,30.01
2023-05-21T17:29:03.735Z,30.39
2023-05-21T17:34:06.982Z,30.59
2023-05-21T17:39:10.602Z,30.57
2023-05-21T17:44:17.335Z,30.72
2023-05-21T17:49:20.847Z,30.97
2023-05-21T17:54:23.736Z,31.39
2023-05-21T17:59:26.770Z,31.83
2023-05-21T18:04:29.745Z,32.14
2023-05-21T18:09:32.824Z,32.56
2023-05-21T18:14:35.839Z,33.15
2023-05-21T18:19:38.786Z,33.78
2023-05-21T18:24:41.780Z,34.42
2023-05-21T18:29:45.049Z,35.06
2023-05-21T18:34:48.546Z,35.65
2023-05-21T18:39:51.504Z,36.10
2023-05-21T18:44:54.454Z,36.54
2023-05-21T18:49:57.423Z,36.54
2023-05-21T18:55:00.795Z,36.96
2023-05-21T19:00:09.903Z,37.30
2023-05-21T19:05:13.235Z,37.52
2023-05-21T19:10:16.346Z,37.72
2023-05-21T19:15:19.494Z,38.66
2023-05-21T19:20:27.268Z,41.60
2023-05-21T19:25:31.889Z,41.90
2023-05-21T19:30:36.705Z,42.92
2023-05-21T19:35:41.675Z,43.21
2023-05-21T19:40:45.110Z,45.15
2023-05-21T19:45:48.486Z,46.01
2023-05-21T19:50:51.710Z,46.53
2023-05-21T19:55:55.020Z,46.54
2023-05-21T20:00:59.431Z,46.73
2023-05-21T20:06:03.482Z,47.24
2023-05-21T20:11:06.638Z,46.51
2023-05-21T20:16:10.706Z,46.36
2023-05-21T20:21:17.646Z,47.46
2023-05-21T20:26:22.029Z,48.10
2023-05-21T20:31:25.671Z,48.67
2023-05-21T20:36:30.667Z,49.88
2023-05-21T20:41:37.943Z,49.95
2023-05-21T20:46:41.237Z,49.90
2023-05-21T20:51:44.740Z,49.60
2023-05-21T20:56:50.880Z,49.01
2023-05-21T21:01:54.206Z,48.68
2023-05-21T21:06:57.298Z,48.85
2023-05-21T21:12:06.148Z,48.72
2023-05-21T21:17:12.056Z,49.37
2023-05-21T21:22:16.644Z,49.85
2023-05-21T21:27:19.671Z,51.83
2023-05-21T21:32:22.778Z,53.13
2023-05-21T21:37:25.859Z,54.24
2023-05-21T21:42:28.849Z,54.71
2023-05-21T21:47:31.947Z,55.03
2023-05-21T21:52:40.032Z,55.06
2023-05-21T21:57:43.192Z,55.30
2023-05-21T22:02:48.938Z,55.53
2023-05-21T22:07:52.209Z,55.24
2023-05-21T22:12:55.263Z,55.47
2023-05-21T22:18:01.023Z,55.88
2023-05-21T22:23:04.452Z,56.31
2023-05-21T22:28:07.379Z,56.78
2023-05-21T22:33:11.533Z,57.29
2023-05-21T22:38:14.510Z,57.37
2023-05-21T22:43:17.665Z,57.43
2023-05-21T22:48:22.144Z,58.26
2023-05-21T22:53:25.925Z,58.00
2023-05-21T22:58:29.080Z,58.88
2023-05-21T23:03:32.246Z,60.19
2023-05-21T23:08:38.258Z,60.65
2023-05-21T23:13:43.910Z,60.32
2023-05-21T23:18:47.907Z,60.30
2023-05-21T23:23:50.921Z,60.46
2023-05-21T23:28:56.921Z,60.73
2023-05-21T23:34:01.827Z,60.81
2023-05-21T23:39:04.780Z,62.47
2023-05-21T23:44:07.931Z,62.81
2023-05-21T23:49:11.812Z,61.78
2023-05-21T23:54:17.105Z,63.14
2023-05-21T23:59:20.474Z,63.66
